Flight Track Log - Related Links

Times and Time Zones

All times are in EDT time to prevent confusion due to time zone crossing. See the N534M flight status page for this flight to view local times or setup timezone preferences in your user account.

Time Position Orientation Groundspeed Altitude Reporting Facility
EDT Latitude Longitude Course Direction KTS MPH feet Rate Location/Type
Fri 07:12:42 AM 44.8272 -91.3992 150° Southeast 282 325 4,400  Level Minneapolis Center
Fri 07:13:42 AM 44.7828 -91.3625 149° Southeast 224 258 6,000 1,750 Climbing Minneapolis Center
Fri 07:14:42 AM 44.7364 -91.3233 147° Southeast 197 227 7,900 1,650 Climbing Minneapolis Center
Fri 07:15:42 AM 44.7003 -91.2897 150° Southeast 184 212 9,300 1,600 Climbing Minneapolis Center
Fri 07:16:42 AM 44.6517 -91.2506 146° Southeast 195 224 11,100 1,750 Climbing Minneapolis Center
Fri 07:17:42 AM 44.6069 -91.2086 146° Southeast 189 217 12,800 1,650 Climbing Minneapolis Center
Fri 07:18:42 AM 44.5625 -91.1667 150° Southeast 189 217 14,400 1,600 Climbing Minneapolis Center
Fri 07:19:42 AM 44.5117 -91.1250 147° Southeast 201 231 16,000 1,200 Climbing Minneapolis Center
Fri 07:20:42 AM 44.4564 -91.0750 148° Southeast 225 259 16,800 450 Climbing Minneapolis Center
Fri 07:21:42 AM 44.3864 -91.0139 147° Southeast 253 291 16,900 100 Climbing Minneapolis Center
Fri 07:22:42 AM 44.3183 -90.9528 149° Southeast 286 329 17,000 31 Climbing Minneapolis Center
Fri 07:24:56 AM 44.1561 -90.8192 147° Southeast 296 341 17,000  Level Chicago Center
Fri 07:25:56 AM 44.0839 -90.7539 149° Southeast 301 346 17,000  Level Chicago Center
Fri 07:26:56 AM 44.0097 -90.6917 148° Southeast 312 359 17,000 50 Level Chicago Center
Fri 07:27:56 AM 43.9375 -90.6294 146° Southeast 312 359 17,100  Climbing Chicago Center
Fri 07:28:56 AM 43.8653 -90.5619 149° Southeast 312 359 17,000 -50 Descending Chicago Center
Fri 07:29:56 AM 43.7911 -90.5000 148° Southeast 317 365 17,000  Level Chicago Center
Fri 07:30:56 AM 43.7167 -90.4353 149° Southeast 317 365 17,000  Level Chicago Center
Fri 07:31:56 AM 43.6422 -90.3739 147° Southeast 317 365 17,000  Level Chicago Center
Fri 07:32:56 AM 43.5719 -90.3097 150° Southeast 311 358 17,000 50 Level Chicago Center
Fri 07:33:56 AM 43.5014 -90.2542 148° Southeast 319 367 17,100 50 Climbing Chicago Center
Fri 07:34:56 AM 43.4311 -90.1931 149° Southeast 313 360 17,100 -50 Level Chicago Center
Fri 07:35:56 AM 43.3564 -90.1322 149° Southeast 313 360 17,000 -50 Descending Chicago Center
Fri 07:36:56 AM 43.2839 -90.0714 148° Southeast 313 360 17,000  Level Chicago Center
Fri 07:37:56 AM 43.2136 -90.0106 149° Southeast 308 354 17,000  Level Chicago Center
Fri 07:38:56 AM 43.1431 -89.9531 149° Southeast 303 349 17,000  Level Chicago Center
Fri 07:39:56 AM 43.0725 -89.8956 148° Southeast 302 348 17,000 -50 Level Chicago Center
Fri 07:40:56 AM 43.0017 -89.8353 148° Southeast 302 348 16,900 -500 Descending Chicago Center
Fri 07:41:56 AM 42.9269 -89.7722 150° Southeast 302 348 16,000 -850 Descending Chicago Center
Fri 07:42:56 AM 42.8522 -89.7122 149° Southeast 313 360 15,200 -500 Descending Chicago Center
Fri 07:43:56 AM 42.7836 -89.6553 149° Southeast 307 353 15,000 -100 Descending Chicago Center
Fri 07:44:56 AM 42.7108 -89.5956 148° Southeast 301 346 15,000 -300 Level Chicago Center
Fri 07:45:56 AM 42.6381 -89.5333 150° Southeast 301 346 14,400 -600 Descending Chicago Center
Fri 07:46:56 AM 42.5650 -89.4767 144° Southeast 301 346 13,800 -650 Descending Chicago Center
Fri 07:47:56 AM 42.4942 -89.4061 141° Southeast 311 358 13,100 -850 Descending Chicago Center
Fri 07:48:56 AM 42.4256 -89.3303 144° Southeast 316 364 12,100 -900 Descending Chicago Center
Fri 07:49:56 AM 42.3567 -89.2628 141° Southeast 316 364 11,300 -1,050 Descending Chicago Center
Fri 07:50:56 AM 42.2942 -89.1956 144° Southeast 300 345 10,000 -1,600 Descending Chicago Center
Fri 07:51:56 AM 42.2314 -89.1339 142° Southeast 286 329 8,100 -1,900 Descending Chicago Center
Fri 07:52:56 AM 42.1708 -89.0697 143° Southeast 286 329 6,200 -1,500 Descending Chicago Center
Fri 07:53:56 AM 42.1103 -89.0083 134° Southeast 275 316 5,100 -303 Descending Chicago Center
Fri 07:56:34 AM 41.9833 -88.8333 103° East 260 299 5,100  Level Chicago TRACON
Fri 07:57:28 AM 41.9667 -88.7333 105° East 261 300 5,100 -56 Level Chicago TRACON
Fri 07:58:22 AM 41.9500 -88.6500 109° East 262 302 5,000 -389 Descending Chicago TRACON
Fri 07:59:16 AM 41.9333 -88.5833 118° Southeast 258 297 4,400 -947 Descending Chicago TRACON
Fri 08:00:16 AM 41.9000 -88.5000 103° East 237 273 3,200 -905 Descending Chicago TRACON
Fri 08:01:22 AM 41.8833 -88.4000 90° East 223 257 2,500 -333 Descending Chicago TRACON
Fri 08:02:22 AM 41.8833 -88.3333 114° Southeast 179 206 2,500 -397 Level Chicago TRACON
Fri 08:03:23 AM 41.8667 -88.2833 114° Southeast 151 174 1,700 -787 Descending Chicago TRACON

Login

Don't have an account? Register now (free) for customized features, flight alerts, and more!